sensor_id;sensor_type;location;lat;lon;timestamp;temperature;humidity
44487;DHT22;30191;50.908;6.962;2022-09-09T00:04:38;19.20;99.90
44487;DHT22;30191;50.908;6.962;2022-09-09T00:15:11;19.30;99.90
44487;DHT22;30191;50.908;6.962;2022-09-09T00:20:53;19.30;99.90
44487;DHT22;30191;50.908;6.962;2022-09-09T00:26:04;19.30;99.90
44487;DHT22;30191;50.908;6.962;2022-09-09T00:28:41;19.20;99.90
44487;DHT22;30191;50.908;6.962;2022-09-09T00:31:17;19.30;99.90
44487;DHT22;30191;50.908;6.962;2022-09-09T00:33:44;19.20;99.90
44487;DHT22;30191;50.908;6.962;2022-09-09T00:36:15;19.20;99.90
44487;DHT22;30191;50.908;6.962;2022-09-09T00:38:51;19.10;99.90
44487;DHT22;30191;50.908;6.962;2022-09-09T00:44:31;19.00;99.90
44487;DHT22;30191;50.908;6.962;2022-09-09T00:50:45;18.90;99.90
44487;DHT22;30191;50.908;6.962;2022-09-09T00:55:56;18.90;99.90
44487;DHT22;30191;50.908;6.962;2022-09-09T00:58:25;18.90;99.90
44487;DHT22;30191;50.908;6.962;2022-09-09T01:01:04;19.00;99.90
44487;DHT22;30191;50.908;6.962;2022-09-09T01:03:36;19.00;99.90
44487;DHT22;30191;50.908;6.962;2022-09-09T01:11:04;19.00;99.90
44487;DHT22;30191;50.908;6.962;2022-09-09T01:13:32;19.00;99.90
44487;DHT22;30191;50.908;6.962;2022-09-09T01:16:00;19.00;99.90
44487;DHT22;30191;50.908;6.962;2022-09-09T01:18:29;19.00;99.90
44487;DHT22;30191;50.908;6.962;2022-09-09T01:26:45;19.00;99.90
44487;DHT22;30191;50.908;6.962;2022-09-09T01:29:20;19.00;99.90
44487;DHT22;30191;50.908;6.962;2022-09-09T01:34:20;19.00;99.90
44487;DHT22;30191;50.908;6.962;2022-09-09T01:37:10;18.90;99.90
44487;DHT22;30191;50.908;6.962;2022-09-09T01:39:38;18.90;99.90
44487;DHT22;30191;50.908;6.962;2022-09-09T01:42:07;18.90;99.90
44487;DHT22;30191;50.908;6.962;2022-09-09T01:44:35;19.00;99.90
44487;DHT22;30191;50.908;6.962;2022-09-09T01:47:01;19.00;99.90
44487;DHT22;30191;50.908;6.962;2022-09-09T01:49:27;19.00;99.90
44487;DHT22;30191;50.908;6.962;2022-09-09T01:51:54;18.90;99.90
44487;DHT22;30191;50.908;6.962;2022-09-09T01:54:22;18.90;99.90
44487;DHT22;30191;50.908;6.962;2022-09-09T01:57:06;18.90;99.90
44487;DHT22;30191;50.908;6.962;2022-09-09T02:04:50;18.90;99.90
44487;DHT22;30191;50.908;6.962;2022-09-09T02:10:09;18.90;99.90
44487;DHT22;30191;50.908;6.962;2022-09-09T02:12:40;18.90;99.90
44487;DHT22;30191;50.908;6.962;2022-09-09T02:15:32;19.00;99.90
44487;DHT22;30191;50.908;6.962;2022-09-09T02:18:01;19.00;99.90
44487;DHT22;30191;50.908;6.962;2022-09-09T02:20:31;19.00;99.90
44487;DHT22;30191;50.908;6.962;2022-09-09T02:22:59;19.00;99.90
44487;DHT22;30191;50.908;6.962;2022-09-09T02:25:28;19.00;99.90
44487;DHT22;30191;50.908;6.962;2022-09-09T02:27:55;18.90;99.90
44487;DHT22;30191;50.908;6.962;2022-09-09T02:30:23;18.90;99.90
44487;DHT22;30191;50.908;6.962;2022-09-09T02:32:50;19.00;99.90
44487;DHT22;30191;50.908;6.962;2022-09-09T02:35:20;18.90;99.90
44487;DHT22;30191;50.908;6.962;2022-09-09T02:37:48;18.80;99.90
44487;DHT22;30191;50.908;6.962;2022-09-09T02:40:15;18.80;99.90
44487;DHT22;30191;50.908;6.962;2022-09-09T02:42:43;18.80;99.90
44487;DHT22;30191;50.908;6.962;2022-09-09T02:45:11;18.90;99.90
44487;DHT22;30191;50.908;6.962;2022-09-09T02:50:39;19.00;99.90
44487;DHT22;30191;50.908;6.962;2022-09-09T02:53:16;19.00;99.90
44487;DHT22;30191;50.908;6.962;2022-09-09T02:55:46;19.10;99.90
44487;DHT22;30191;50.908;6.962;2022-09-09T02:58:16;19.00;99.90
44487;DHT22;30191;50.908;6.962;2022-09-09T03:00:49;19.00;99.90
44487;DHT22;30191;50.908;6.962;2022-09-09T03:03:16;19.00;99.90
44487;DHT22;30191;50.908;6.962;2022-09-09T03:05:44;19.10;99.90
44487;DHT22;30191;50.908;6.962;2022-09-09T03:08:10;19.10;99.90
44487;DHT22;30191;50.908;6.962;2022-09-09T03:10:36;19.10;99.90
44487;DHT22;30191;50.908;6.962;2022-09-09T03:13:02;19.10;99.90
44487;DHT22;30191;50.908;6.962;2022-09-09T03:15:29;19.20;99.90
44487;DHT22;30191;50.908;6.962;2022-09-09T03:17:57;19.20;99.90
44487;DHT22;30191;50.908;6.962;2022-09-09T03:20:27;19.20;99.90
44487;DHT22;30191;50.908;6.962;2022-09-09T03:22:54;19.10;99.90
44487;DHT22;30191;50.908;6.962;2022-09-09T03:25:20;19.10;99.90
44487;DHT22;30191;50.908;6.962;2022-09-09T03:27:46;19.10;99.90
44487;DHT22;30191;50.908;6.962;2022-09-09T03:30:12;19.10;99.90
44487;DHT22;30191;50.908;6.962;2022-09-09T03:32:37;19.10;99.90
44487;DHT22;30191;50.908;6.962;2022-09-09T03:35:04;19.10;99.90
44487;DHT22;30191;50.908;6.962;2022-09-09T03:37:30;19.10;99.90
44487;DHT22;30191;50.908;6.962;2022-09-09T03:39:57;19.10;99.90
44487;DHT22;30191;50.908;6.962;2022-09-09T03:42:22;19.10;99.90
44487;DHT22;30191;50.908;6.962;2022-09-09T03:44:48;19.10;99.90
44487;DHT22;30191;50.908;6.962;2022-09-09T03:47:25;19.10;99.90
44487;DHT22;30191;50.908;6.962;2022-09-09T03:49:51;19.10;99.90
44487;DHT22;30191;50.908;6.962;2022-09-09T03:52:16;19.10;99.90
44487;DHT22;30191;50.908;6.962;2022-09-09T03:54:43;19.20;99.90
44487;DHT22;30191;50.908;6.962;2022-09-09T03:57:09;19.10;99.90
44487;DHT22;30191;50.908;6.962;2022-09-09T03:59:35;19.10;99.90
44487;DHT22;30191;50.908;6.962;2022-09-09T04:02:02;19.20;99.90
44487;DHT22;30191;50.908;6.962;2022-09-09T04:04:28;19.10;99.90
44487;DHT22;30191;50.908;6.962;2022-09-09T04:06:54;19.10;99.90
44487;DHT22;30191;50.908;6.962;2022-09-09T04:09:20;19.20;99.90
44487;DHT22;30191;50.908;6.962;2022-09-09T04:11:45;19.10;99.90
44487;DHT22;30191;50.908;6.962;2022-09-09T04:14:12;19.10;99.90
44487;DHT22;30191;50.908;6.962;2022-09-09T04:16:38;19.10;99.90
44487;DHT22;30191;50.908;6.962;2022-09-09T04:19:04;19.10;99.90
44487;DHT22;30191;50.908;6.962;2022-09-09T04:21:32;19.10;99.90
44487;DHT22;30191;50.908;6.962;2022-09-09T04:23:57;19.10;99.90
44487;DHT22;30191;50.908;6.962;2022-09-09T04:26:23;19.10;99.90
44487;DHT22;30191;50.908;6.962;2022-09-09T04:28:49;19.20;99.90
44487;DHT22;30191;50.908;6.962;2022-09-09T04:31:17;19.10;99.90
44487;DHT22;30191;50.908;6.962;2022-09-09T04:33:43;19.10;99.90
44487;DHT22;30191;50.908;6.962;2022-09-09T04:36:09;19.10;99.90
44487;DHT22;30191;50.908;6.962;2022-09-09T04:38:35;19.10;99.90
44487;DHT22;30191;50.908;6.962;2022-09-09T04:41:01;19.10;99.90
44487;DHT22;30191;50.908;6.962;2022-09-09T04:43:27;19.00;99.90
44487;DHT22;30191;50.908;6.962;2022-09-09T04:45:52;19.10;99.90
44487;DHT22;30191;50.908;6.962;2022-09-09T04:48:19;19.10;99.90
44487;DHT22;30191;50.908;6.962;2022-09-09T04:50:57;19.10;99.90
44487;DHT22;30191;50.908;6.962;2022-09-09T04:53:23;19.10;99.90
44487;DHT22;30191;50.908;6.962;2022-09-09T04:55:49;19.10;99.90
44487;DHT22;30191;50.908;6.962;2022-09-09T04:58:15;19.10;99.90
44487;DHT22;30191;50.908;6.962;2022-09-09T05:00:40;19.20;99.90
44487;DHT22;30191;50.908;6.962;2022-09-09T05:03:07;19.10;99.90
44487;DHT22;30191;50.908;6.962;2022-09-09T05:05:34;19.10;99.90
44487;DHT22;30191;50.908;6.962;2022-09-09T05:08:02;19.10;99.90
44487;DHT22;30191;50.908;6.962;2022-09-09T05:10:27;19.10;99.90
44487;DHT22;30191;50.908;6.962;2022-09-09T05:12:53;19.10;99.90
44487;DHT22;30191;50.908;6.962;2022-09-09T05:15:19;19.10;99.90
44487;DHT22;30191;50.908;6.962;2022-09-09T05:17:46;19.10;99.90
44487;DHT22;30191;50.908;6.962;2022-09-09T05:20:12;19.10;99.90
44487;DHT22;30191;50.908;6.962;2022-09-09T05:22:37;19.10;99.90
44487;DHT22;30191;50.908;6.962;2022-09-09T05:25:04;19.10;99.90
44487;DHT22;30191;50.908;6.962;2022-09-09T05:27:29;19.10;99.90
44487;DHT22;30191;50.908;6.962;2022-09-09T05:29:58;19.10;99.90
44487;DHT22;30191;50.908;6.962;2022-09-09T05:32:23;19.10;99.90
44487;DHT22;30191;50.908;6.962;2022-09-09T05:34:49;19.10;99.90
44487;DHT22;30191;50.908;6.962;2022-09-09T05:37:15;19.10;99.90
44487;DHT22;30191;50.908;6.962;2022-09-09T05:39:42;19.10;99.90
44487;DHT22;30191;50.908;6.962;2022-09-09T05:42:07;19.10;99.90
44487;DHT22;30191;50.908;6.962;2022-09-09T05:44:33;19.10;99.90
44487;DHT22;30191;50.908;6.962;2022-09-09T05:46:59;19.10;99.90
44487;DHT22;30191;50.908;6.962;2022-09-09T05:49:25;19.10;99.90
44487;DHT22;30191;50.908;6.962;2022-09-09T05:51:50;19.10;99.90
44487;DHT22;30191;50.908;6.962;2022-09-09T05:54:16;19.10;99.90
44487;DHT22;30191;50.908;6.962;2022-09-09T05:56:42;19.20;99.90
44487;DHT22;30191;50.908;6.962;2022-09-09T05:59:08;19.20;99.90
44487;DHT22;30191;50.908;6.962;2022-09-09T06:01:36;19.20;99.90
44487;DHT22;30191;50.908;6.962;2022-09-09T06:04:05;19.20;99.90
44487;DHT22;30191;50.908;6.962;2022-09-09T06:06:34;19.10;99.90
44487;DHT22;30191;50.908;6.962;2022-09-09T06:09:06;19.10;99.90
44487;DHT22;30191;50.908;6.962;2022-09-09T06:11:35;19.10;99.90
44487;DHT22;30191;50.908;6.962;2022-09-09T06:14:01;19.10;99.90
44487;DHT22;30191;50.908;6.962;2022-09-09T06:16:28;19.10;99.90
44487;DHT22;30191;50.908;6.962;2022-09-09T06:18:55;19.10;99.90
44487;DHT22;30191;50.908;6.962;2022-09-09T06:21:23;19.10;99.90
44487;DHT22;30191;50.908;6.962;2022-09-09T06:23:50;19.20;99.90
44487;DHT22;30191;50.908;6.962;2022-09-09T06:26:30;19.20;99.90
44487;DHT22;30191;50.908;6.962;2022-09-09T06:28:57;19.10;99.90
44487;DHT22;30191;50.908;6.962;2022-09-09T06:31:26;19.10;99.90
44487;DHT22;30191;50.908;6.962;2022-09-09T06:33:53;19.10;99.90
44487;DHT22;30191;50.908;6.962;2022-09-09T06:36:40;19.00;99.90
44487;DHT22;30191;50.908;6.962;2022-09-09T06:39:07;19.00;99.90
44487;DHT22;30191;50.908;6.962;2022-09-09T06:41:34;19.00;99.90
44487;DHT22;30191;50.908;6.962;2022-09-09T06:43:59;19.00;99.90
44487;DHT22;30191;50.908;6.962;2022-09-09T06:46:28;19.00;99.90
44487;DHT22;30191;50.908;6.962;2022-09-09T06:48:56;18.90;99.90
44487;DHT22;30191;50.908;6.962;2022-09-09T06:51:25;18.80;99.90
44487;DHT22;30191;50.908;6.962;2022-09-09T06:53:55;18.80;99.90
44487;DHT22;30191;50.908;6.962;2022-09-09T06:56:42;18.90;99.90
44487;DHT22;30191;50.908;6.962;2022-09-09T06:59:09;18.90;99.90
44487;DHT22;30191;50.908;6.962;2022-09-09T07:01:37;18.90;99.90
44487;DHT22;30191;50.908;6.962;2022-09-09T07:04:04;19.00;99.90
44487;DHT22;30191;50.908;6.962;2022-09-09T07:06:37;19.00;99.90
44487;DHT22;30191;50.908;6.962;2022-09-09T07:09:05;19.00;99.90
44487;DHT22;30191;50.908;6.962;2022-09-09T07:11:33;19.10;99.90
44487;DHT22;30191;50.908;6.962;2022-09-09T07:14:00;19.00;99.90
44487;DHT22;30191;50.908;6.962;2022-09-09T07:16:27;19.10;99.90
44487;DHT22;30191;50.908;6.962;2022-09-09T07:18:53;19.00;99.90
44487;DHT22;30191;50.908;6.962;2022-09-09T07:21:23;19.00;99.90
44487;DHT22;30191;50.908;6.962;2022-09-09T07:23:50;19.00;99.90
44487;DHT22;30191;50.908;6.962;2022-09-09T07:26:18;18.90;99.90
44487;DHT22;30191;50.908;6.962;2022-09-09T07:28:47;18.90;99.90
44487;DHT22;30191;50.908;6.962;2022-09-09T07:31:18;19.00;99.90
44487;DHT22;30191;50.908;6.962;2022-09-09T07:33:45;19.00;99.90
44487;DHT22;30191;50.908;6.962;2022-09-09T07:36:18;19.00;99.90
44487;DHT22;30191;50.908;6.962;2022-09-09T07:38:54;19.10;99.90
44487;DHT22;30191;50.908;6.962;2022-09-09T07:41:24;19.20;99.90
44487;DHT22;30191;50.908;6.962;2022-09-09T07:43:50;19.30;99.90
44487;DHT22;30191;50.908;6.962;2022-09-09T07:46:18;19.40;99.90
44487;DHT22;30191;50.908;6.962;2022-09-09T07:48:49;19.40;99.90
44487;DHT22;30191;50.908;6.962;2022-09-09T07:51:17;19.50;99.90
44487;DHT22;30191;50.908;6.962;2022-09-09T07:53:47;19.60;99.90
44487;DHT22;30191;50.908;6.962;2022-09-09T07:56:17;19.50;99.90
44487;DHT22;30191;50.908;6.962;2022-09-09T07:58:46;19.50;99.90
44487;DHT22;30191;50.908;6.962;2022-09-09T08:01:15;19.50;99.90
44487;DHT22;30191;50.908;6.962;2022-09-09T08:03:44;19.50;99.90
44487;DHT22;30191;50.908;6.962;2022-09-09T08:06:10;19.50;99.90
44487;DHT22;30191;50.908;6.962;2022-09-09T08:08:38;19.40;99.90
44487;DHT22;30191;50.908;6.962;2022-09-09T08:11:12;19.50;99.90
44487;DHT22;30191;50.908;6.962;2022-09-09T08:13:40;19.50;99.90
44487;DHT22;30191;50.908;6.962;2022-09-09T08:16:14;19.60;99.90
44487;DHT22;30191;50.908;6.962;2022-09-09T08:18:40;19.70;99.90
44487;DHT22;30191;50.908;6.962;2022-09-09T08:21:14;19.70;99.90
44487;DHT22;30191;50.908;6.962;2022-09-09T08:23:43;19.60;99.90
44487;DHT22;30191;50.908;6.962;2022-09-09T08:26:22;19.70;99.90
44487;DHT22;30191;50.908;6.962;2022-09-09T08:28:53;19.60;99.90
44487;DHT22;30191;50.908;6.962;2022-09-09T08:31:28;19.50;99.90
44487;DHT22;30191;50.908;6.962;2022-09-09T08:33:54;19.50;99.90
44487;DHT22;30191;50.908;6.962;2022-09-09T08:36:22;19.60;99.90
44487;DHT22;30191;50.908;6.962;2022-09-09T08:38:50;19.60;99.90
44487;DHT22;30191;50.908;6.962;2022-09-09T08:52:55;19.70;99.90
44487;DHT22;30191;50.908;6.962;2022-09-09T08:58:35;19.60;99.90
44487;DHT22;30191;50.908;6.962;2022-09-09T09:11:58;19.90;99.90
44487;DHT22;30191;50.908;6.962;2022-09-09T09:14:33;20.10;99.90
44487;DHT22;30191;50.908;6.962;2022-09-09T09:17:18;20.20;99.90
44487;DHT22;30191;50.908;6.962;2022-09-09T09:19:45;20.20;99.90
44487;DHT22;30191;50.908;6.962;2022-09-09T09:22:39;20.30;99.90
44487;DHT22;30191;50.908;6.962;2022-09-09T09:25:31;20.30;99.90
44487;DHT22;30191;50.908;6.962;2022-09-09T09:27:59;20.20;99.90
44487;DHT22;30191;50.908;6.962;2022-09-09T09:30:44;20.20;99.90
44487;DHT22;30191;50.908;6.962;2022-09-09T09:33:20;20.20;99.90
44487;DHT22;30191;50.908;6.962;2022-09-09T09:35:49;20.20;99.90
44487;DHT22;30191;50.908;6.962;2022-09-09T09:38:18;20.20;99.90
44487;DHT22;30191;50.908;6.962;2022-09-09T09:40:53;20.20;99.90
44487;DHT22;30191;50.908;6.962;2022-09-09T09:43:34;20.10;99.90
44487;DHT22;30191;50.908;6.962;2022-09-09T09:46:00;20.10;99.90
44487;DHT22;30191;50.908;6.962;2022-09-09T09:48:28;20.10;99.90
44487;DHT22;30191;50.908;6.962;2022-09-09T09:51:08;20.20;99.90
44487;DHT22;30191;50.908;6.962;2022-09-09T09:53:37;20.10;99.90
44487;DHT22;30191;50.908;6.962;2022-09-09T09:56:07;20.30;99.90
44487;DHT22;30191;50.908;6.962;2022-09-09T09:58:50;20.50;99.90
44487;DHT22;30191;50.908;6.962;2022-09-09T10:03:57;20.50;99.90
44487;DHT22;30191;50.908;6.962;2022-09-09T10:06:33;20.50;99.90
44487;DHT22;30191;50.908;6.962;2022-09-09T10:08:59;20.60;99.90
44487;DHT22;30191;50.908;6.962;2022-09-09T10:11:52;20.60;99.90
44487;DHT22;30191;50.908;6.962;2022-09-09T10:17:07;20.70;99.90
44487;DHT22;30191;50.908;6.962;2022-09-09T10:19:36;20.60;99.90
44487;DHT22;30191;50.908;6.962;2022-09-09T10:30:23;20.20;99.90
44487;DHT22;30191;50.908;6.962;2022-09-09T10:33:10;20.30;99.90
44487;DHT22;30191;50.908;6.962;2022-09-09T10:39:04;20.30;99.90
44487;DHT22;30191;50.908;6.962;2022-09-09T10:41:57;20.50;99.90
44487;DHT22;30191;50.908;6.962;2022-09-09T10:47:23;20.60;99.90
44487;DHT22;30191;50.908;6.962;2022-09-09T10:55:41;20.70;99.90
44487;DHT22;30191;50.908;6.962;2022-09-09T10:58:14;20.90;99.90
44487;DHT22;30191;50.908;6.962;2022-09-09T11:00:49;20.90;99.90
44487;DHT22;30191;50.908;6.962;2022-09-09T11:03:20;20.90;99.90
44487;DHT22;30191;50.908;6.962;2022-09-09T11:05:55;21.00;99.90
44487;DHT22;30191;50.908;6.962;2022-09-09T11:08:28;21.10;99.90
44487;DHT22;30191;50.908;6.962;2022-09-09T11:16:42;21.40;99.90
44487;DHT22;30191;50.908;6.962;2022-09-09T11:19:36;21.40;99.90
44487;DHT22;30191;50.908;6.962;2022-09-09T11:24:49;21.10;99.90
44487;DHT22;30191;50.908;6.962;2022-09-09T11:27:35;21.10;99.90
44487;DHT22;30191;50.908;6.962;2022-09-09T11:32:46;21.00;99.90
44487;DHT22;30191;50.908;6.962;2022-09-09T11:35:35;20.80;99.90
44487;DHT22;30191;50.908;6.962;2022-09-09T11:41:07;20.80;99.90
44487;DHT22;30191;50.908;6.962;2022-09-09T11:43:52;20.80;99.90
44487;DHT22;30191;50.908;6.962;2022-09-09T11:46:33;20.90;99.90
44487;DHT22;30191;50.908;6.962;2022-09-09T11:49:05;21.00;99.90
44487;DHT22;30191;50.908;6.962;2022-09-09T11:51:33;21.10;99.90
44487;DHT22;30191;50.908;6.962;2022-09-09T11:54:31;21.10;99.90
44487;DHT22;30191;50.908;6.962;2022-09-09T11:56:57;21.20;99.90
44487;DHT22;30191;50.908;6.962;2022-09-09T11:59:28;21.00;99.90
44487;DHT22;30191;50.908;6.962;2022-09-09T12:04:28;21.00;99.90
44487;DHT22;30191;50.908;6.962;2022-09-09T12:12:05;20.80;99.90
44487;DHT22;30191;50.908;6.962;2022-09-09T12:14:38;20.80;99.90
44487;DHT22;30191;50.908;6.962;2022-09-09T12:17:31;20.80;99.90
44487;DHT22;30191;50.908;6.962;2022-09-09T12:28:04;21.10;99.90
44487;DHT22;30191;50.908;6.962;2022-09-09T12:31:10;21.40;99.90
44487;DHT22;30191;50.908;6.962;2022-09-09T12:33:35;21.50;99.90
44487;DHT22;30191;50.908;6.962;2022-09-09T12:36:01;21.50;99.90
44487;DHT22;30191;50.908;6.962;2022-09-09T12:38:35;21.30;99.90
44487;DHT22;30191;50.908;6.962;2022-09-09T12:41:02;21.30;99.90
44487;DHT22;30191;50.908;6.962;2022-09-09T12:43:28;21.30;99.90
44487;DHT22;30191;50.908;6.962;2022-09-09T12:46:00;21.10;99.90
44487;DHT22;30191;50.908;6.962;2022-09-09T12:48:37;21.10;99.90
44487;DHT22;30191;50.908;6.962;2022-09-09T12:51:07;21.00;99.90
44487;DHT22;30191;50.908;6.962;2022-09-09T12:53:41;21.00;99.90
44487;DHT22;30191;50.908;6.962;2022-09-09T12:56:08;21.10;99.90
44487;DHT22;30191;50.908;6.962;2022-09-09T12:58:46;21.40;99.90
44487;DHT22;30191;50.908;6.962;2022-09-09T13:01:24;21.70;99.90
44487;DHT22;30191;50.908;6.962;2022-09-09T13:03:51;21.90;99.90
44487;DHT22;30191;50.908;6.962;2022-09-09T13:08:53;22.00;99.90
44487;DHT22;30191;50.908;6.962;2022-09-09T13:11:26;21.90;99.90
44487;DHT22;30191;50.908;6.962;2022-09-09T13:13:56;21.80;99.90
44487;DHT22;30191;50.908;6.962;2022-09-09T13:18:48;24.40;98.90
44487;DHT22;30191;50.908;6.962;2022-09-09T13:21:14;24.70;98.20
44487;DHT22;30191;50.908;6.962;2022-09-09T13:23:40;24.60;97.70
44487;DHT22;30191;50.908;6.962;2022-09-09T13:26:23;24.40;98.50
44487;DHT22;30191;50.908;6.962;2022-09-09T13:28:50;24.60;98.00
44487;DHT22;30191;50.908;6.962;2022-09-09T13:31:27;24.10;98.20
44487;DHT22;30191;50.908;6.962;2022-09-09T13:33:53;23.70;99.00
44487;DHT22;30191;50.908;6.962;2022-09-09T13:36:29;23.40;99.30
44487;DHT22;30191;50.908;6.962;2022-09-09T13:38:56;23.10;99.90
44487;DHT22;30191;50.908;6.962;2022-09-09T13:41:34;22.60;99.90
44487;DHT22;30191;50.908;6.962;2022-09-09T13:44:02;22.60;99.90
44487;DHT22;30191;50.908;6.962;2022-09-09T13:49:17;25.00;98.60
44487;DHT22;30191;50.908;6.962;2022-09-09T13:51:46;25.40;98.00
44487;DHT22;30191;50.908;6.962;2022-09-09T13:54:16;25.70;97.60
44487;DHT22;30191;50.908;6.962;2022-09-09T13:56:43;27.00;96.20
44487;DHT22;30191;50.908;6.962;2022-09-09T13:59:15;28.60;94.30
44487;DHT22;30191;50.908;6.962;2022-09-09T14:01:41;28.90;93.10
44487;DHT22;30191;50.908;6.962;2022-09-09T14:04:07;28.10;93.00
44487;DHT22;30191;50.908;6.962;2022-09-09T14:06:34;27.30;94.30
44487;DHT22;30191;50.908;6.962;2022-09-09T14:09:04;27.60;94.30
44487;DHT22;30191;50.908;6.962;2022-09-09T14:11:29;27.60;93.80
44487;DHT22;30191;50.908;6.962;2022-09-09T14:13:55;26.10;95.00
44487;DHT22;30191;50.908;6.962;2022-09-09T14:16:21;24.90;97.10
44487;DHT22;30191;50.908;6.962;2022-09-09T14:18:47;24.80;98.00
44487;DHT22;30191;50.908;6.962;2022-09-09T14:21:13;24.00;98.10
44487;DHT22;30191;50.908;6.962;2022-09-09T14:23:40;23.80;99.20
44487;DHT22;30191;50.908;6.962;2022-09-09T14:26:06;23.60;99.80
44487;DHT22;30191;50.908;6.962;2022-09-09T14:28:32;22.90;99.90
44487;DHT22;30191;50.908;6.962;2022-09-09T14:31:03;22.50;99.90
44487;DHT22;30191;50.908;6.962;2022-09-09T14:33:29;22.20;99.90
44487;DHT22;30191;50.908;6.962;2022-09-09T14:36:03;21.90;99.90
44487;DHT22;30191;50.908;6.962;2022-09-09T14:38:30;21.60;99.90
44487;DHT22;30191;50.908;6.962;2022-09-09T14:40:56;21.60;99.90
44487;DHT22;30191;50.908;6.962;2022-09-09T14:43:22;21.40;99.90
44487;DHT22;30191;50.908;6.962;2022-09-09T14:45:48;21.10;99.90
44487;DHT22;30191;50.908;6.962;2022-09-09T14:48:14;20.80;99.90
44487;DHT22;30191;50.908;6.962;2022-09-09T14:50:41;20.70;99.90
44487;DHT22;30191;50.908;6.962;2022-09-09T14:53:07;20.20;99.90
44487;DHT22;30191;50.908;6.962;2022-09-09T14:55:34;20.10;99.90
44487;DHT22;30191;50.908;6.962;2022-09-09T14:58:00;20.00;99.90
44487;DHT22;30191;50.908;6.962;2022-09-09T15:00:26;20.40;99.90
44487;DHT22;30191;50.908;6.962;2022-09-09T15:02:53;21.00;99.90
44487;DHT22;30191;50.908;6.962;2022-09-09T15:05:19;21.50;99.90
44487;DHT22;30191;50.908;6.962;2022-09-09T15:07:45;21.90;99.90
44487;DHT22;30191;50.908;6.962;2022-09-09T15:10:11;21.70;99.90
44487;DHT22;30191;50.908;6.962;2022-09-09T15:12:37;21.50;99.90
44487;DHT22;30191;50.908;6.962;2022-09-09T15:15:04;21.10;99.90
44487;DHT22;30191;50.908;6.962;2022-09-09T15:17:30;20.80;99.90
44487;DHT22;30191;50.908;6.962;2022-09-09T15:19:56;20.70;99.90
44487;DHT22;30191;50.908;6.962;2022-09-09T15:22:22;20.60;99.90
44487;DHT22;30191;50.908;6.962;2022-09-09T15:24:47;20.50;99.90
44487;DHT22;30191;50.908;6.962;2022-09-09T15:27:13;20.50;99.90
44487;DHT22;30191;50.908;6.962;2022-09-09T15:29:40;20.50;99.90
44487;DHT22;30191;50.908;6.962;2022-09-09T15:32:07;20.30;99.90
44487;DHT22;30191;50.908;6.962;2022-09-09T15:34:33;20.20;99.90
44487;DHT22;30191;50.908;6.962;2022-09-09T15:36:59;20.20;99.90
44487;DHT22;30191;50.908;6.962;2022-09-09T15:39:27;20.20;99.90
44487;DHT22;30191;50.908;6.962;2022-09-09T15:41:53;20.10;99.90
44487;DHT22;30191;50.908;6.962;2022-09-09T15:44:19;20.00;99.90
44487;DHT22;30191;50.908;6.962;2022-09-09T15:46:49;19.90;99.90
44487;DHT22;30191;50.908;6.962;2022-09-09T15:49:18;19.90;99.90
44487;DHT22;30191;50.908;6.962;2022-09-09T15:51:46;19.80;99.90
44487;DHT22;30191;50.908;6.962;2022-09-09T15:54:14;19.50;99.90
44487;DHT22;30191;50.908;6.962;2022-09-09T15:56:42;19.20;99.90
44487;DHT22;30191;50.908;6.962;2022-09-09T15:59:08;19.10;99.90
44487;DHT22;30191;50.908;6.962;2022-09-09T16:01:36;19.00;99.90
44487;DHT22;30191;50.908;6.962;2022-09-09T16:04:02;18.80;99.90
44487;DHT22;30191;50.908;6.962;2022-09-09T16:06:28;18.70;99.90
44487;DHT22;30191;50.908;6.962;2022-09-09T16:08:55;18.60;99.90
44487;DHT22;30191;50.908;6.962;2022-09-09T16:11:24;18.50;99.90
44487;DHT22;30191;50.908;6.962;2022-09-09T16:13:51;18.50;99.90
44487;DHT22;30191;50.908;6.962;2022-09-09T16:16:19;18.50;99.90
44487;DHT22;30191;50.908;6.962;2022-09-09T16:18:49;18.60;99.90
44487;DHT22;30191;50.908;6.962;2022-09-09T16:21:18;18.70;99.90
44487;DHT22;30191;50.908;6.962;2022-09-09T16:23:44;18.80;99.90
44487;DHT22;30191;50.908;6.962;2022-09-09T16:26:14;18.80;99.90
44487;DHT22;30191;50.908;6.962;2022-09-09T16:28:40;18.70;99.90
44487;DHT22;30191;50.908;6.962;2022-09-09T16:31:08;18.80;99.90
44487;DHT22;30191;50.908;6.962;2022-09-09T16:33:35;18.90;99.90
44487;DHT22;30191;50.908;6.962;2022-09-09T16:36:13;19.00;99.90
44487;DHT22;30191;50.908;6.962;2022-09-09T16:38:39;19.10;99.90
44487;DHT22;30191;50.908;6.962;2022-09-09T16:41:06;19.20;99.90
44487;DHT22;30191;50.908;6.962;2022-09-09T16:43:36;19.20;99.90
44487;DHT22;30191;50.908;6.962;2022-09-09T16:46:03;19.30;99.90
44487;DHT22;30191;50.908;6.962;2022-09-09T16:48:35;19.50;99.90
44487;DHT22;30191;50.908;6.962;2022-09-09T16:51:23;19.60;99.90
44487;DHT22;30191;50.908;6.962;2022-09-09T16:53:49;19.70;99.90
44487;DHT22;30191;50.908;6.962;2022-09-09T16:56:17;19.70;99.90
44487;DHT22;30191;50.908;6.962;2022-09-09T16:58:55;19.70;99.90
44487;DHT22;30191;50.908;6.962;2022-09-09T17:01:23;19.80;99.90
44487;DHT22;30191;50.908;6.962;2022-09-09T17:03:53;19.80;99.90
44487;DHT22;30191;50.908;6.962;2022-09-09T17:06:19;19.80;99.90
44487;DHT22;30191;50.908;6.962;2022-09-09T17:08:47;19.90;99.90
44487;DHT22;30191;50.908;6.962;2022-09-09T17:11:15;19.80;99.90
44487;DHT22;30191;50.908;6.962;2022-09-09T17:13:42;19.90;99.90
44487;DHT22;30191;50.908;6.962;2022-09-09T17:16:09;19.90;99.90
44487;DHT22;30191;50.908;6.962;2022-09-09T17:18:35;19.70;99.90
44487;DHT22;30191;50.908;6.962;2022-09-09T17:21:06;19.70;99.90
44487;DHT22;30191;50.908;6.962;2022-09-09T17:23:34;19.60;99.90
44487;DHT22;30191;50.908;6.962;2022-09-09T17:26:04;19.50;99.90
44487;DHT22;30191;50.908;6.962;2022-09-09T17:28:31;19.50;99.90
44487;DHT22;30191;50.908;6.962;2022-09-09T17:30:58;19.40;99.90
44487;DHT22;30191;50.908;6.962;2022-09-09T17:33:30;19.40;99.90
44487;DHT22;30191;50.908;6.962;2022-09-09T17:35:58;19.30;99.90
44487;DHT22;30191;50.908;6.962;2022-09-09T17:38:25;19.30;99.90
44487;DHT22;30191;50.908;6.962;2022-09-09T17:41:35;19.20;99.90
44487;DHT22;30191;50.908;6.962;2022-09-09T17:44:02;19.10;99.90
44487;DHT22;30191;50.908;6.962;2022-09-09T17:46:37;19.10;99.90
44487;DHT22;30191;50.908;6.962;2022-09-09T17:49:05;19.00;99.90
44487;DHT22;30191;50.908;6.962;2022-09-09T17:51:33;19.00;99.90
44487;DHT22;30191;50.908;6.962;2022-09-09T17:54:04;18.90;99.90
44487;DHT22;30191;50.908;6.962;2022-09-09T17:56:32;18.90;99.90
44487;DHT22;30191;50.908;6.962;2022-09-09T17:58:58;18.90;99.90
44487;DHT22;30191;50.908;6.962;2022-09-09T18:01:27;18.90;99.90
44487;DHT22;30191;50.908;6.962;2022-09-09T18:03:54;18.90;99.90
44487;DHT22;30191;50.908;6.962;2022-09-09T18:06:24;18.90;99.90